Time;durP1;ratioP1;P1;durP2;ratioP2;P2;SDS_P1;SDS_P2;PMS_P1;PMS_P2;Temp;Humidity;BMP_temperature;BMP_pressure;BME280_temperature;BME280_humidity;BME280_pressure;Samples;Min_cycle;Max_cycle;Signal;HPM_P1;HPM_P2
2024/01/25 00:01:30;;;;;;;25.13;3.67;;;8.40;99.90;;;;;;5007336;28;20034;-71
2024/01/25 00:03:55;;;;;;;30.67;3.95;;;8.40;99.90;;;;;;5008120;28;20478;-70
2024/01/25 00:06:21;;;;;;;25.33;3.40;;;8.40;99.90;;;;;;4999778;28;20042;-71
2024/01/25 00:08:47;;;;;;;30.10;2.97;;;8.30;99.90;;;;;;4991879;28;20416;-71
2024/01/25 00:11:13;;;;;;;29.52;4.72;;;8.30;99.90;;;;;;4996471;28;20356;-70
2024/01/25 00:13:39;;;;;;;26.38;3.13;;;8.40;99.90;;;;;;5011429;28;20034;-71
2024/01/25 00:16:05;;;;;;;26.60;3.83;;;8.40;99.90;;;;;;5011227;28;20057;-70
2024/01/25 00:18:30;;;;;;;24.80;4.20;;;8.40;99.90;;;;;;5010751;28;20033;-70
2024/01/25 00:20:56;;;;;;;33.83;2.95;;;8.40;99.90;;;;;;5011545;28;20459;-70
2024/01/25 00:23:21;;;;;;;28.88;4.22;;;8.40;99.90;;;;;;5010797;28;20105;-71
2024/01/25 00:25:47;;;;;;;23.60;3.22;;;8.40;99.90;;;;;;5009439;28;20030;-70
2024/01/25 00:28:13;;;;;;;26.10;3.60;;;8.40;99.90;;;;;;5010759;28;20029;-70
2024/01/25 00:30:39;;;;;;;27.52;3.83;;;8.40;99.90;;;;;;5010756;28;20427;-71
2024/01/25 00:33:05;;;;;;;33.97;3.80;;;8.40;99.90;;;;;;5000207;28;20093;-71
2024/01/25 00:35:31;;;;;;;27.15;3.47;;;8.40;99.90;;;;;;5001104;28;20065;-71
2024/01/25 00:37:57;;;;;;;22.58;2.97;;;8.40;99.90;;;;;;4993273;28;20089;-69
2024/01/25 00:40:23;;;;;;;26.98;3.60;;;8.40;99.90;;;;;;4990716;28;20077;-71
2024/01/25 00:42:52;;;;;;;23.42;3.92;;;8.30;99.90;;;;;;4992071;28;20517;-70
2024/01/25 00:45:19;;;;;;;29.25;3.42;;;8.40;99.90;;;;;;5008388;28;20069;-70
2024/01/25 00:47:45;;;;;;;33.45;4.20;;;8.40;99.90;;;;;;5004116;28;20034;-71
2024/01/25 00:50:12;;;;;;;30.52;3.40;;;8.40;99.90;;;;;;4994361;28;20578;-73
2024/01/25 00:52:38;;;;;;;25.45;3.60;;;8.40;99.90;;;;;;5010915;28;20026;-70
2024/01/25 00:55:04;;;;;;;30.92;3.35;;;8.30;99.90;;;;;;5011191;28;20037;-70
2024/01/25 00:57:30;;;;;;;20.35;3.35;;;8.40;99.90;;;;;;5009966;28;20021;-72
2024/01/25 00:59:56;;;;;;;29.08;3.67;;;8.40;99.90;;;;;;5010167;28;20034;-70
2024/01/25 01:02:22;;;;;;;30.42;4.25;;;8.30;99.90;;;;;;5009182;28;20066;-71
2024/01/25 01:04:48;;;;;;;25.33;4.05;;;8.30;99.90;;;;;;5003527;28;20069;-70
2024/01/25 01:07:15;;;;;;;25.77;3.90;;;8.40;99.90;;;;;;5005303;28;20053;-69
2024/01/25 01:09:40;;;;;;;24.27;3.75;;;8.40;99.90;;;;;;5010109;28;20052;-71
2024/01/25 01:12:06;;;;;;;20.35;3.30;;;8.40;99.90;;;;;;5008890;28;20467;-71
2024/01/25 01:14:32;;;;;;;26.70;3.78;;;8.40;99.90;;;;;;4989346;28;20038;-71
2024/01/25 01:16:58;;;;;;;26.67;4.28;;;8.50;99.90;;;;;;4997948;28;20025;-70
2024/01/25 01:19:24;;;;;;;28.70;3.78;;;8.40;99.90;;;;;;4998871;28;20037;-70
2024/01/25 01:21:49;;;;;;;29.83;3.20;;;8.40;99.90;;;;;;4996334;28;20050;-71
2024/01/25 01:24:15;;;;;;;25.63;3.83;;;8.50;99.90;;;;;;4990705;28;20137;-72
2024/01/25 01:26:41;;;;;;;26.73;3.78;;;8.50;99.90;;;;;;5010301;28;20026;-71
2024/01/25 01:29:08;;;;;;;26.13;3.63;;;8.50;99.90;;;;;;5009825;28;20033;-71
2024/01/25 01:31:33;;;;;;;26.83;3.65;;;8.50;99.90;;;;;;4997600;28;20832;-71
2024/01/25 01:34:00;;;;;;;22.90;3.65;;;8.50;99.90;;;;;;5002471;28;20049;-71
2024/01/25 01:36:26;;;;;;;30.30;3.53;;;8.50;99.90;;;;;;5009368;28;20026;-71
2024/01/25 01:38:51;;;;;;;33.55;3.70;;;8.50;99.90;;;;;;5009221;28;20033;-70
2024/01/25 01:41:17;;;;;;;29.52;3.55;;;8.50;99.90;;;;;;5008788;28;20046;-70
2024/01/25 01:43:42;;;;;;;44.47;4.60;;;8.50;99.90;;;;;;5015994;28;20050;-70
2024/01/25 01:46:20;;;;;;;32.15;3.47;;;8.50;99.90;;;;;;5008590;28;20116;-71
2024/01/25 01:48:46;;;;;;;30.17;4.78;;;8.50;99.90;;;;;;4989837;28;20194;-72
2024/01/25 01:51:12;;;;;;;29.60;4.28;;;8.60;99.90;;;;;;4994854;28;20113;-73
2024/01/25 01:53:37;;;;;;;30.80;3.40;;;8.50;99.90;;;;;;5007141;28;20026;-69
2024/01/25 01:56:04;;;;;;;32.80;4.47;;;8.50;99.90;;;;;;5007639;28;20034;-69
2024/01/25 01:58:31;;;;;;;38.72;3.90;;;8.40;99.90;;;;;;5006800;28;20034;-70
2024/01/25 02:00:59;;;;;;;23.88;3.70;;;8.40;99.90;;;;;;5002639;28;20026;-70
2024/01/25 02:03:25;;;;;;;31.13;3.50;;;8.40;99.90;;;;;;5008189;28;20096;-70
2024/01/25 02:05:50;;;;;;;32.30;4.45;;;8.50;99.90;;;;;;4997159;28;20435;-71
2024/01/25 02:08:16;;;;;;;28.27;2.97;;;8.50;99.90;;;;;;5002653;28;20080;-72
2024/01/25 02:10:43;;;;;;;35.17;3.40;;;8.60;99.90;;;;;;5004746;28;20030;-71
2024/01/25 02:13:08;;;;;;;19.75;3.40;;;8.60;99.90;;;;;;5003144;28;20068;-71
2024/01/25 02:15:34;;;;;;;28.00;3.78;;;8.60;99.90;;;;;;4997524;28;20179;-71
2024/01/25 02:17:59;;;;;;;22.88;4.00;;;8.50;99.90;;;;;;4998290;28;20034;-70
2024/01/25 02:20:25;;;;;;;26.88;3.95;;;8.50;99.90;;;;;;4995789;28;20062;-72
2024/01/25 02:22:51;;;;;;;29.00;4.35;;;8.50;99.90;;;;;;4999409;28;20030;-71
2024/01/25 02:25:17;;;;;;;24.60;4.20;;;8.50;99.90;;;;;;4992374;28;20034;-73
2024/01/25 02:27:42;;;;;;;20.98;3.30;;;8.50;99.90;;;;;;4995126;28;20475;-71
2024/01/25 02:30:08;;;;;;;24.25;3.72;;;8.40;99.90;;;;;;5008856;28;20026;-71
2024/01/25 02:32:34;;;;;;;25.63;3.33;;;8.40;99.90;;;;;;4999999;28;20046;-70
2024/01/25 02:35:00;;;;;;;33.60;3.60;;;8.40;99.90;;;;;;4992779;28;20030;-69
2024/01/25 02:37:26;;;;;;;33.22;3.67;;;8.40;99.90;;;;;;5007441;28;20087;-71
2024/01/25 02:39:52;;;;;;;28.73;3.50;;;8.40;99.90;;;;;;4995958;28;20478;-70
2024/01/25 02:42:18;;;;;;;31.02;4.20;;;8.40;99.90;;;;;;5000152;28;20022;-71
2024/01/25 02:44:44;;;;;;;27.20;3.35;;;8.40;99.90;;;;;;4999176;28;20062;-71
2024/01/25 02:47:10;;;;;;;30.45;3.85;;;8.40;99.90;;;;;;5007273;28;20034;-71
2024/01/25 02:49:36;;;;;;;26.63;4.13;;;8.40;99.90;;;;;;5007132;28;20041;-72
2024/01/25 02:52:01;;;;;;;27.35;3.38;;;8.40;99.90;;;;;;4999209;28;20030;-69
2024/01/25 02:54:27;;;;;;;29.27;3.45;;;8.40;99.90;;;;;;5001577;28;20363;-71
2024/01/25 02:56:53;;;;;;;35.22;3.90;;;8.30;99.90;;;;;;5008488;28;20037;-69
2024/01/25 02:59:18;;;;;;;28.20;4.40;;;8.40;99.90;;;;;;5006354;28;20052;-73
2024/01/25 03:01:44;;;;;;;27.85;3.72;;;8.40;99.90;;;;;;5007704;28;20045;-70
2024/01/25 03:04:11;;;;;;;29.23;3.42;;;8.40;99.90;;;;;;5008641;28;20176;-71
2024/01/25 03:06:37;;;;;;;34.58;4.57;;;8.40;99.90;;;;;;5006991;28;20030;-69
2024/01/25 03:09:05;;;;;;;20.25;3.15;;;8.40;99.90;;;;;;5006244;28;20467;-69
2024/01/25 03:11:31;;;;;;;24.17;3.90;;;8.40;99.90;;;;;;5007135;28;20037;-71
2024/01/25 03:13:57;;;;;;;23.95;3.17;;;8.40;99.90;;;;;;5007949;28;20037;-70
2024/01/25 03:16:23;;;;;;;23.45;4.53;;;8.40;99.90;;;;;;5007854;28;20040;-70
2024/01/25 03:18:48;;;;;;;18.98;3.25;;;8.40;99.90;;;;;;5007882;28;20021;-71
2024/01/25 03:21:14;;;;;;;22.98;3.30;;;8.30;99.90;;;;;;5001525;28;20394;-71
2024/01/25 03:23:40;;;;;;;27.60;3.30;;;8.40;99.90;;;;;;5003054;28;20049;-69
2024/01/25 03:26:05;;;;;;;26.70;3.20;;;8.30;99.90;;;;;;5008238;28;20026;-71
2024/01/25 03:28:33;;;;;;;35.92;3.78;;;8.30;99.90;;;;;;5006763;28;20466;-71
2024/01/25 03:30:58;;;;;;;19.15;3.00;;;8.40;99.90;;;;;;5006046;28;20053;-71
2024/01/25 03:33:25;;;;;;;22.10;3.22;;;8.30;99.90;;;;;;5006553;28;20142;-69
2024/01/25 03:35:51;;;;;;;22.70;3.20;;;8.30;99.90;;;;;;5008409;28;20037;-70
2024/01/25 03:38:17;;;;;;;26.23;3.50;;;8.20;99.90;;;;;;5007758;28;20098;-73
2024/01/25 03:40:43;;;;;;;21.40;3.17;;;8.20;99.90;;;;;;5009548;28;20030;-70
2024/01/25 03:43:08;;;;;;;28.17;3.65;;;8.20;99.90;;;;;;5011916;28;20072;-71
2024/01/25 03:45:34;;;;;;;32.88;3.33;;;8.20;99.90;;;;;;5005662;28;20062;-70
2024/01/25 03:47:59;;;;;;;28.10;3.28;;;8.20;99.90;;;;;;4992526;28;20036;-70
2024/01/25 03:50:26;;;;;;;28.98;3.95;;;8.10;99.90;;;;;;4991912;28;20045;-71
2024/01/25 03:52:52;;;;;;;28.58;3.80;;;8.10;99.90;;;;;;4992243;28;20035;-70
2024/01/25 03:55:18;;;;;;;29.15;4.20;;;8.20;99.90;;;;;;5017492;28;20105;-71
2024/01/25 03:57:44;;;;;;;23.73;3.50;;;8.10;99.90;;;;;;5002573;28;20033;-70
2024/01/25 04:00:11;;;;;;;28.38;3.58;;;8.10;99.90;;;;;;5010219;28;20478;-70
2024/01/25 04:02:36;;;;;;;30.67;3.78;;;8.00;99.90;;;;;;5009724;28;20026;-69
2024/01/25 04:05:03;;;;;;;27.63;3.70;;;8.00;99.90;;;;;;5007018;28;20031;-71
2024/01/25 04:07:28;;;;;;;34.47;4.28;;;7.90;99.90;;;;;;4991563;28;20026;-71
2024/01/25 04:09:54;;;;;;;28.90;3.83;;;8.00;99.90;;;;;;4999525;28;20116;-70
2024/01/25 04:12:20;;;;;;;36.03;4.57;;;8.10;99.90;;;;;;4997186;28;20824;-72
2024/01/25 04:14:45;;;;;;;23.02;3.65;;;8.00;99.90;;;;;;5005594;28;20111;-71
2024/01/25 04:17:11;;;;;;;20.42;3.83;;;8.00;99.90;;;;;;5008211;28;20029;-68
2024/01/25 04:19:37;;;;;;;24.30;4.00;;;8.00;99.90;;;;;;5003206;28;20132;-70
2024/01/25 04:22:02;;;;;;;31.95;4.65;;;7.90;99.90;;;;;;5002208;28;20034;-69
2024/01/25 04:24:28;;;;;;;30.63;4.25;;;8.00;99.90;;;;;;5003406;28;20474;-71
2024/01/25 04:26:53;;;;;;;22.27;3.03;;;8.00;99.90;;;;;;5003088;28;20172;-70
2024/01/25 04:29:19;;;;;;;24.05;3.10;;;8.00;99.90;;;;;;5006537;28;20061;-71
2024/01/25 04:31:46;;;;;;;25.10;3.60;;;8.00;99.90;;;;;;5009658;28;20139;-70
2024/01/25 04:34:15;;;;;;;21.45;4.28;;;8.00;99.90;;;;;;5011154;28;20018;-69
2024/01/25 04:36:42;;;;;;;20.37;3.10;;;7.90;99.90;;;;;;5010605;28;20066;-71
2024/01/25 04:39:08;;;;;;;23.05;3.20;;;7.90;99.90;;;;;;5010035;28;20109;-70
2024/01/25 04:41:33;;;;;;;23.98;3.83;;;7.80;99.90;;;;;;5007573;28;20117;-70
2024/01/25 04:43:59;;;;;;;29.40;3.47;;;7.80;99.90;;;;;;5010338;28;20049;-69
2024/01/25 04:46:24;;;;;;;29.60;4.47;;;7.80;99.90;;;;;;5010502;28;20042;-73
2024/01/25 04:48:50;;;;;;;28.90;3.65;;;7.80;99.90;;;;;;5010604;28;20034;-72
2024/01/25 04:51:17;;;;;;;28.73;3.50;;;7.90;99.90;;;;;;5009180;28;20030;-71
2024/01/25 04:53:43;;;;;;;24.17;3.70;;;7.90;99.90;;;;;;5004891;28;20030;-71
2024/01/25 04:56:09;;;;;;;17.88;3.17;;;7.80;99.90;;;;;;4995703;28;20037;-69
2024/01/25 04:58:34;;;;;;;21.08;3.45;;;7.70;99.90;;;;;;4999930;28;20033;-74
2024/01/25 05:01:00;;;;;;;26.65;3.63;;;7.70;99.90;;;;;;4986053;28;20549;-71
2024/01/25 05:03:26;;;;;;;25.17;4.40;;;7.70;99.90;;;;;;5003962;28;20034;-76
2024/01/25 05:05:52;;;;;;;30.58;3.65;;;7.70;99.90;;;;;;5003066;28;20157;-72
2024/01/25 05:08:17;;;;;;;29.52;3.67;;;7.80;99.90;;;;;;4997232;28;20758;-68
2024/01/25 05:10:43;;;;;;;20.80;3.75;;;7.80;99.90;;;;;;4996450;28;20596;-69
2024/01/25 05:13:09;;;;;;;27.58;3.97;;;7.70;99.90;;;;;;5005375;28;20041;-68
2024/01/25 05:15:35;;;;;;;23.02;3.45;;;7.70;99.90;;;;;;5004347;28;20045;-70
2024/01/25 05:18:02;;;;;;;26.23;3.17;;;7.70;99.90;;;;;;5004171;28;20034;-71
2024/01/25 05:20:32;;;;;;;23.80;3.83;;;7.70;99.90;;;;;;5001730;28;20459;-75
2024/01/25 05:22:58;;;;;;;26.23;3.35;;;7.70;99.90;;;;;;5000798;28;20034;-71
2024/01/25 05:25:25;;;;;;;25.17;4.07;;;7.80;99.90;;;;;;4999643;28;20839;-69
2024/01/25 05:27:52;;;;;;;29.75;3.53;;;7.80;99.90;;;;;;5001134;28;20386;-67
2024/01/25 05:30:18;;;;;;;26.45;3.60;;;7.80;99.90;;;;;;5000525;28;20079;-69
2024/01/25 05:32:43;;;;;;;20.33;3.10;;;7.80;99.90;;;;;;4987595;28;20026;-68
2024/01/25 05:35:09;;;;;;;23.00;3.78;;;7.70;99.90;;;;;;4997759;28;20068;-67
2024/01/25 05:37:35;;;;;;;26.02;3.58;;;7.70;99.90;;;;;;4994752;28;20030;-67
2024/01/25 05:40:01;;;;;;;25.77;4.47;;;7.80;99.90;;;;;;5002173;28;20038;-68
2024/01/25 05:42:26;;;;;;;27.05;3.42;;;7.80;99.90;;;;;;5009110;28;20030;-72
2024/01/25 05:44:52;;;;;;;29.27;3.67;;;7.70;99.90;;;;;;5007108;28;20129;-67
2024/01/25 05:47:17;;;;;;;23.65;3.47;;;7.70;99.90;;;;;;5004857;28;20076;-67
2024/01/25 05:49:43;;;;;;;25.52;4.07;;;7.70;99.90;;;;;;5006314;28;20076;-68
2024/01/25 05:52:09;;;;;;;26.65;4.32;;;7.60;99.90;;;;;;5014319;28;20036;-69
2024/01/25 05:54:41;;;;;;;24.75;3.30;;;7.60;99.90;;;;;;5001391;28;20038;-70
2024/01/25 05:57:06;;;;;;;15.88;3.33;;;7.60;99.90;;;;;;5009701;28;20030;-67
2024/01/25 05:59:32;;;;;;;33.15;3.42;;;7.50;99.90;;;;;;4999422;28;20041;-67
2024/01/25 06:01:57;;;;;;;24.00;3.65;;;7.60;99.90;;;;;;5008122;28;20022;-67
2024/01/25 06:04:23;;;;;;;21.30;4.05;;;7.60;99.90;;;;;;5005790;28;20045;-69
2024/01/25 06:06:49;;;;;;;21.00;3.35;;;7.50;99.90;;;;;;5007162;28;20608;-68
2024/01/25 06:09:15;;;;;;;19.52;3.55;;;7.40;99.90;;;;;;5008711;28;20037;-69
2024/01/25 06:11:41;;;;;;;24.17;3.72;;;7.40;99.90;;;;;;5008770;28;20030;-66
2024/01/25 06:14:07;;;;;;;32.30;3.80;;;7.20;99.90;;;;;;5005118;28;20030;-66
2024/01/25 06:16:33;;;;;;;27.20;3.58;;;7.10;99.90;;;;;;5007414;28;20541;-68
2024/01/25 06:19:00;;;;;;;27.02;4.03;;;7.10;99.90;;;;;;5007450;28;20029;-66
2024/01/25 06:21:25;;;;;;;25.38;3.80;;;7.00;99.90;;;;;;5008044;28;20034;-69
2024/01/25 06:23:51;;;;;;;31.83;4.07;;;6.90;99.90;;;;;;5006105;28;20021;-67
2024/01/25 06:26:17;;;;;;;33.17;3.90;;;6.90;99.90;;;;;;5007326;28;20121;-66
2024/01/25 06:28:42;;;;;;;34.38;4.43;;;6.90;99.90;;;;;;5002415;28;20033;-68
2024/01/25 06:31:08;;;;;;;31.33;4.35;;;6.90;99.90;;;;;;5005050;28;20446;-69
2024/01/25 06:33:34;;;;;;;28.05;4.15;;;6.90;99.90;;;;;;5002121;28;20041;-67
2024/01/25 06:35:59;;;;;;;30.80;4.00;;;6.80;99.90;;;;;;4995045;28;20038;-69
2024/01/25 06:38:25;;;;;;;16.77;3.05;;;6.90;99.90;;;;;;5003993;28;20104;-71
2024/01/25 06:40:51;;;;;;;27.15;3.97;;;6.90;99.90;;;;;;5008102;28;20026;-68
2024/01/25 06:43:16;;;;;;;24.77;4.50;;;6.80;99.90;;;;;;5008164;28;20021;-66
2024/01/25 06:45:42;;;;;;;33.83;4.38;;;6.70;99.90;;;;;;5005656;28;20498;-68
2024/01/25 06:48:11;;;;;;;29.25;4.65;;;6.60;99.90;;;;;;5006503;28;20672;-69
2024/01/25 06:50:36;;;;;;;30.20;4.75;;;6.60;99.90;;;;;;5004900;28;20041;-69
2024/01/25 06:53:03;;;;;;;28.88;5.25;;;6.60;99.90;;;;;;4996905;28;20030;-67
2024/01/25 06:55:29;;;;;;;35.70;4.55;;;6.60;99.90;;;;;;5004593;28;20051;-70
2024/01/25 06:57:55;;;;;;;21.30;3.92;;;6.70;99.90;;;;;;4995120;28;20670;-68
2024/01/25 07:00:20;;;;;;;32.67;4.13;;;6.60;99.90;;;;;;5005715;28;20041;-67
2024/01/25 07:02:47;;;;;;;27.15;5.47;;;6.60;99.90;;;;;;4998199;28;20045;-67
2024/01/25 07:05:13;;;;;;;39.80;4.28;;;6.50;99.90;;;;;;5001238;28;20128;-67
2024/01/25 07:07:39;;;;;;;32.85;4.35;;;6.50;99.90;;;;;;5005146;28;20049;-67
2024/01/25 07:10:06;;;;;;;26.33;4.03;;;6.40;99.90;;;;;;5002764;28;20041;-65
2024/01/25 07:12:32;;;;;;;28.48;4.05;;;6.40;99.90;;;;;;4999509;28;20514;-70
2024/01/25 07:14:58;;;;;;;32.80;4.32;;;6.30;99.90;;;;;;5006433;28;20037;-67
2024/01/25 07:17:23;;;;;;;34.40;4.82;;;6.30;99.90;;;;;;5003830;28;20146;-66
2024/01/25 07:19:49;;;;;;;21.52;4.35;;;6.30;99.90;;;;;;5001925;28;20029;-69
2024/01/25 07:22:17;;;;;;;26.27;3.25;;;6.30;99.90;;;;;;5002659;28;20061;-67
2024/01/25 07:24:43;;;;;;;29.30;3.42;;;6.30;99.90;;;;;;5006008;28;20643;-66
2024/01/25 07:27:10;;;;;;;35.50;4.60;;;6.40;99.90;;;;;;5009463;28;20033;-67
2024/01/25 07:29:36;;;;;;;37.08;4.05;;;6.40;99.90;;;;;;5002499;28;20054;-66
2024/01/25 07:32:02;;;;;;;33.83;3.83;;;6.40;99.90;;;;;;5006680;28;20108;-67
2024/01/25 07:34:28;;;;;;;32.63;4.60;;;6.40;99.90;;;;;;5006708;28;20104;-66
2024/01/25 07:36:54;;;;;;;25.42;3.40;;;6.40;99.90;;;;;;5007683;28;20902;-66
2024/01/25 07:39:19;;;;;;;25.75;3.90;;;6.50;99.90;;;;;;5005850;28;20570;-68
2024/01/25 07:41:45;;;;;;;25.83;3.72;;;6.50;99.90;;;;;;4999904;28;20132;-67
2024/01/25 07:44:12;;;;;;;30.48;3.72;;;6.50;99.90;;;;;;5004640;28;20054;-67
2024/01/25 07:46:38;;;;;;;38.15;4.40;;;6.50;99.90;;;;;;5000449;28;20039;-65
2024/01/25 07:49:03;;;;;;;19.77;4.32;;;6.40;99.90;;;;;;5003105;28;20045;-66
2024/01/25 07:51:29;;;;;;;30.77;4.80;;;6.40;99.90;;;;;;5003278;28;20033;-67
2024/01/25 07:53:55;;;;;;;33.70;3.95;;;6.40;99.90;;;;;;5001122;28;20037;-67
2024/01/25 07:56:21;;;;;;;28.40;4.90;;;6.40;99.90;;;;;;5006369;28;20478;-67
2024/01/25 07:58:51;;;;;;;30.23;4.90;;;6.50;99.90;;;;;;4998987;28;20524;-66
2024/01/25 08:01:20;;;;;;;22.75;3.92;;;6.60;99.90;;;;;;5007240;28;20034;-65
2024/01/25 08:03:45;;;;;;;27.27;3.78;;;6.60;99.90;;;;;;5005885;28;20030;-66
2024/01/25 08:06:11;;;;;;;30.17;3.92;;;6.70;99.90;;;;;;5009091;28;20034;-67
2024/01/25 08:08:37;;;;;;;27.42;4.40;;;6.80;99.90;;;;;;5005813;28;20034;-69
2024/01/25 08:11:04;;;;;;;33.70;5.43;;;6.80;99.90;;;;;;5008176;28;20029;-66
2024/01/25 08:13:30;;;;;;;30.20;5.40;;;6.80;99.90;;;;;;5008612;28;20375;-69
2024/01/25 08:15:56;;;;;;;35.03;8.35;;;6.80;99.90;;;;;;4999886;28;20036;-65
2024/01/25 08:18:27;;;;;;;33.35;6.82;;;6.90;99.90;;;;;;5003901;28;20030;-66
2024/01/25 08:20:52;;;;;;;23.10;6.72;;;6.90;99.90;;;;;;5006569;28;20344;-65
2024/01/25 08:23:18;;;;;;;59.40;15.93;;;6.90;99.90;;;;;;5000016;28;20038;-66
2024/01/25 08:25:44;;;;;;;33.75;9.55;;;6.90;99.90;;;;;;4999910;28;20587;-66
2024/01/25 08:28:10;;;;;;;31.77;5.45;;;7.00;99.90;;;;;;5005385;28;20037;-67
2024/01/25 08:30:35;;;;;;;26.75;5.50;;;7.00;99.90;;;;;;4999520;28;20404;-73
2024/01/25 08:33:01;;;;;;;27.75;4.07;;;7.00;99.90;;;;;;5008173;28;20581;-67
2024/01/25 08:35:27;;;;;;;27.10;4.10;;;7.00;99.90;;;;;;5001539;28;20486;-66
2024/01/25 08:37:52;;;;;;;27.98;3.83;;;7.10;99.90;;;;;;5001049;28;20466;-64
2024/01/25 08:40:18;;;;;;;29.10;4.70;;;7.10;99.90;;;;;;5004190;28;20033;-64
2024/01/25 08:42:43;;;;;;;25.02;4.53;;;7.20;99.90;;;;;;5004161;28;20038;-65
2024/01/25 08:45:10;;;;;;;37.38;4.60;;;7.20;99.90;;;;;;4999399;28;20081;-67
2024/01/25 08:47:36;;;;;;;27.90;4.70;;;7.20;99.90;;;;;;5005986;28;20605;-70
2024/01/25 08:50:03;;;;;;;28.80;4.45;;;7.30;99.90;;;;;;5003771;28;20091;-66
2024/01/25 08:52:29;;;;;;;28.23;3.78;;;7.30;99.90;;;;;;5000703;28;20030;-67
2024/01/25 08:54:55;;;;;;;29.00;4.00;;;7.30;99.90;;;;;;5003195;28;20045;-66
2024/01/25 08:57:20;;;;;;;34.45;4.00;;;7.40;99.90;;;;;;5001364;28;20061;-68
2024/01/25 08:59:46;;;;;;;35.58;4.85;;;7.30;99.90;;;;;;5005383;28;20458;-66
2024/01/25 09:02:12;;;;;;;27.00;5.00;;;7.30;99.90;;;;;;5002818;28;20033;-66
2024/01/25 09:04:37;;;;;;;36.35;5.18;;;7.30;99.90;;;;;;5002357;28;20045;-69
2024/01/25 09:07:03;;;;;;;30.02;4.35;;;7.30;99.90;;;;;;5001599;28;20454;-66
2024/01/25 09:09:29;;;;;;;32.92;4.50;;;7.40;99.90;;;;;;5006201;28;20185;-66
2024/01/25 09:11:55;;;;;;;28.40;5.55;;;7.40;99.90;;;;;;5008510;28;20116;-67
2024/01/25 09:14:21;;;;;;;22.35;3.97;;;7.40;99.90;;;;;;4998167;28;20164;-65
2024/01/25 09:16:47;;;;;;;23.75;4.53;;;7.40;99.90;;;;;;4993126;28;20056;-69
2024/01/25 09:19:13;;;;;;;39.15;5.43;;;7.40;99.90;;;;;;4989056;28;20038;-66
2024/01/25 09:21:42;;;;;;;35.53;4.80;;;7.60;99.90;;;;;;5004462;28;20083;-68
2024/01/25 09:24:07;;;;;;;23.38;4.15;;;7.70;99.90;;;;;;5007586;28;20101;-65
2024/01/25 09:26:33;;;;;;;25.63;4.70;;;8.00;99.90;;;;;;5003039;28;20164;-65
2024/01/25 09:28:59;;;;;;;27.15;4.80;;;8.20;99.90;;;;;;4998002;28;20026;-65
2024/01/25 09:31:24;;;;;;;30.77;5.18;;;8.40;99.90;;;;;;4995385;28;20030;-66
2024/01/25 09:33:51;;;;;;;26.55;4.38;;;8.40;99.90;;;;;;5006859;28;20512;-65
2024/01/25 09:36:17;;;;;;;36.78;3.72;;;8.40;99.90;;;;;;5007808;28;20069;-65
2024/01/25 09:38:43;;;;;;;30.60;4.40;;;8.50;99.90;;;;;;5006027;28;20414;-65
2024/01/25 09:41:09;;;;;;;30.20;4.20;;;8.90;99.90;;;;;;5009402;28;20038;-65
2024/01/25 09:43:36;;;;;;;31.85;4.53;;;9.00;99.90;;;;;;5005868;28;20569;-66
2024/01/25 09:46:05;;;;;;;30.17;4.10;;;8.90;99.90;;;;;;5007237;28;20901;-64
2024/01/25 09:48:31;;;;;;;33.90;3.65;;;8.90;99.90;;;;;;5008865;28;20026;-66
2024/01/25 09:50:58;;;;;;;26.15;4.07;;;8.90;99.90;;;;;;5008692;28;20104;-66
2024/01/25 09:53:24;;;;;;;26.45;3.47;;;8.90;99.90;;;;;;5008693;28;20133;-63
2024/01/25 09:56:01;;;;;;;31.98;4.20;;;8.90;99.90;;;;;;5008506;28;20120;-65
2024/01/25 09:58:35;;;;;;;20.27;3.85;;;8.70;99.90;;;;;;5006967;28;20018;-65
2024/01/25 10:01:00;;;;;;;24.08;4.30;;;8.70;99.90;;;;;;5008634;28;20075;-65
2024/01/25 10:03:26;;;;;;;29.05;4.72;;;8.60;99.90;;;;;;5009372;28;20497;-66
2024/01/25 10:05:52;;;;;;;27.33;3.60;;;8.60;99.90;;;;;;5007409;28;20037;-63
2024/01/25 10:08:20;;;;;;;28.38;4.20;;;8.60;99.90;;;;;;5008981;28;20029;-66
2024/01/25 10:10:45;;;;;;;36.13;4.90;;;8.40;99.90;;;;;;5007408;28;20069;-67
2024/01/25 10:13:13;;;;;;;36.63;4.95;;;8.30;99.90;;;;;;5009744;28;20061;-65
2024/01/25 10:15:41;;;;;;;24.33;4.53;;;8.50;99.90;;;;;;5008563;28;20038;-66
2024/01/25 10:18:12;;;;;;;34.65;4.60;;;8.50;99.90;;;;;;5007182;28;20115;-65
2024/01/25 10:20:40;;;;;;;28.17;4.63;;;8.50;99.90;;;;;;5009718;28;20065;-65
2024/01/25 10:23:06;;;;;;;33.50;5.13;;;8.50;99.90;;;;;;5003544;28;20121;-66
2024/01/25 10:25:37;;;;;;;27.33;4.32;;;8.40;99.90;;;;;;5007405;28;20046;-66
2024/01/25 10:28:07;;;;;;;27.23;5.05;;;8.40;99.90;;;;;;5007949;28;20037;-65
2024/01/25 10:30:34;;;;;;;31.77;4.80;;;8.30;99.90;;;;;;5008511;28;20386;-64
2024/01/25 10:33:01;;;;;;;28.77;4.85;;;8.30;99.90;;;;;;5007909;28;20030;-66
2024/01/25 10:35:27;;;;;;;28.52;4.35;;;8.30;99.90;;;;;;5008043;28;20132;-66
2024/01/25 10:37:53;;;;;;;35.78;4.65;;;8.40;99.90;;;;;;5007482;28;20026;-64
2024/01/25 10:40:19;;;;;;;29.95;4.45;;;8.60;99.90;;;;;;5004700;28;20034;-68
2024/01/25 10:42:46;;;;;;;33.95;4.00;;;8.70;99.90;;;;;;5002730;28;20033;-69
2024/01/25 10:45:12;;;;;;;21.48;3.78;;;9.00;99.90;;;;;;5004209;28;20500;-66
2024/01/25 10:47:40;;;;;;;23.48;3.60;;;8.90;99.90;;;;;;5007306;28;20029;-65
2024/01/25 10:50:10;;;;;;;26.48;3.95;;;8.90;99.90;;;;;;5005182;28;20026;-66
2024/01/25 10:52:37;;;;;;;28.20;4.90;;;8.90;99.90;;;;;;5007081;28;20034;-69
2024/01/25 10:55:05;;;;;;;27.52;4.20;;;9.20;99.90;;;;;;5004954;28;20034;-64
2024/01/25 10:57:42;;;;;;;35.50;4.03;;;9.30;99.90;;;;;;5007276;28;20516;-67
2024/01/25 11:00:10;;;;;;;23.02;3.95;;;9.10;99.90;;;;;;5004884;28;20041;-66
2024/01/25 11:02:37;;;;;;;30.02;4.50;;;8.90;99.90;;;;;;5007518;28;20037;-65
2024/01/25 11:05:16;;;;;;;32.15;4.18;;;8.80;99.90;;;;;;5001006;28;20034;-65
2024/01/25 11:07:50;;;;;;;23.75;3.78;;;8.70;99.90;;;;;;5000686;28;20056;-68
2024/01/25 11:10:18;;;;;;;27.35;3.92;;;8.60;99.90;;;;;;4994174;28;20103;-66
2024/01/25 11:12:54;;;;;;;28.83;3.92;;;8.50;99.90;;;;;;4995222;28;20029;-69
2024/01/25 11:15:33;;;;;;;25.02;3.80;;;8.70;99.90;;;;;;4997593;28;20061;-66
2024/01/25 11:18:00;;;;;;;29.70;3.55;;;9.00;99.90;;;;;;5002743;28;20037;-66
2024/01/25 11:20:28;;;;;;;24.05;4.07;;;9.10;99.90;;;;;;4999810;28;20443;-68
2024/01/25 11:23:05;;;;;;;24.58;4.60;;;9.20;99.90;;;;;;4996342;28;20058;-65
2024/01/25 11:25:32;;;;;;;23.85;4.53;;;9.40;99.90;;;;;;5003205;28;20045;-66
2024/01/25 11:27:58;;;;;;;30.90;4.40;;;9.50;99.90;;;;;;5001666;28;20030;-68
2024/01/25 11:30:25;;;;;;;26.60;3.85;;;9.80;99.90;;;;;;4992870;28;20026;-67
2024/01/25 11:32:51;;;;;;;25.90;3.67;;;9.80;99.90;;;;;;4993746;28;20030;-66
2024/01/25 11:35:17;;;;;;;24.17;3.90;;;9.80;99.90;;;;;;5002291;28;20053;-65
2024/01/25 11:37:46;;;;;;;25.25;4.07;;;10.00;99.90;;;;;;5001283;28;20025;-66
2024/01/25 11:40:13;;;;;;;24.02;3.95;;;10.10;99.90;;;;;;4998591;28;20514;-65
2024/01/25 11:42:39;;;;;;;25.00;3.97;;;10.30;99.90;;;;;;5002609;28;20030;-66
2024/01/25 11:45:09;;;;;;;24.17;4.72;;;10.50;99.90;;;;;;4994718;28;20056;-69
2024/01/25 11:47:35;;;;;;;18.63;3.95;;;10.70;99.90;;;;;;5003037;28;20033;-67
2024/01/25 11:50:01;;;;;;;26.58;3.53;;;10.90;99.90;;;;;;4998949;28;20042;-66
2024/01/25 11:52:27;;;;;;;27.30;3.75;;;10.90;99.90;;;;;;4997718;28;20037;-65
2024/01/25 11:54:53;;;;;;;22.25;3.13;;;11.00;99.90;;;;;;5002060;28;20060;-66
2024/01/25 11:57:20;;;;;;;32.28;3.67;;;11.00;99.90;;;;;;5000065;28;20089;-66
2024/01/25 11:59:46;;;;;;;21.67;3.95;;;10.60;99.90;;;;;;4996173;28;20069;-70
2024/01/25 12:02:13;;;;;;;21.35;3.15;;;10.60;99.90;;;;;;5004083;28;20026;-66
2024/01/25 12:04:39;;;;;;;18.98;3.33;;;10.80;99.90;;;;;;5001529;28;20034;-66
2024/01/25 12:07:06;;;;;;;21.52;3.08;;;10.80;99.90;;;;;;5001427;28;20695;-66
2024/01/25 12:09:32;;;;;;;23.95;3.30;;;10.70;99.90;;;;;;5004160;28;20048;-70
2024/01/25 12:12:00;;;;;;;24.77;3.28;;;10.80;99.90;;;;;;5000166;28;20439;-65
2024/01/25 12:14:27;;;;;;;25.77;3.42;;;10.50;99.90;;;;;;5001861;28;20038;-67
2024/01/25 12:16:55;;;;;;;20.33;3.28;;;10.30;99.90;;;;;;4998464;28;20030;-65
2024/01/25 12:19:21;;;;;;;16.80;3.30;;;10.10;99.90;;;;;;5009049;28;20501;-68
2024/01/25 12:21:47;;;;;;;19.40;3.05;;;10.20;99.90;;;;;;5003446;28;20064;-70
2024/01/25 12:24:13;;;;;;;22.13;3.42;;;10.00;99.90;;;;;;5002172;28;20034;-69
2024/01/25 12:26:38;;;;;;;18.00;2.90;;;10.00;99.90;;;;;;5002846;28;20052;-66
2024/01/25 12:29:05;;;;;;;15.82;3.53;;;10.20;99.90;;;;;;5001054;28;20661;-67
2024/01/25 12:31:31;;;;;;;21.02;3.03;;;10.30;99.90;;;;;;5000808;28;20044;-66
2024/01/25 12:33:57;;;;;;;22.42;3.35;;;10.10;99.90;;;;;;5004433;28;20034;-66
2024/01/25 12:36:23;;;;;;;17.08;3.00;;;10.30;99.90;;;;;;5004126;28;20044;-65
2024/01/25 12:38:49;;;;;;;20.27;3.17;;;10.20;99.90;;;;;;5007090;28;20026;-65
2024/01/25 12:41:14;;;;;;;20.10;3.00;;;10.10;99.90;;;;;;5000811;28;20537;-66